createdAt,value
2023-09-14T00:00:47.715Z,101913.47
2023-09-14T00:03:20.603Z,101953.03
2023-09-14T00:05:52.846Z,102011.50
2023-09-14T00:08:25.133Z,102023.19
2023-09-14T00:10:59.744Z,102043.72
2023-09-14T00:13:32.683Z,102042.81
2023-09-14T00:16:05.046Z,102044.53
2023-09-14T00:18:37.424Z,102048.78
2023-09-14T00:21:09.638Z,102003.88
2023-09-14T00:23:41.706Z,102036.22
2023-09-14T00:26:13.903Z,102025.25
2023-09-14T00:28:46.144Z,102050.41
2023-09-14T00:31:18.294Z,102047.66
2023-09-14T00:33:50.351Z,101995.41
2023-09-14T00:36:24.845Z,101991.66
2023-09-14T00:38:57.138Z,102046.44
2023-09-14T00:41:29.401Z,102035.69
2023-09-14T00:44:01.462Z,102044.69
2023-09-14T00:46:34.024Z,102037.34
2023-09-14T00:49:06.467Z,102025.53
2023-09-14T00:51:38.745Z,102024.66
2023-09-14T00:54:11.448Z,101909.28
2023-09-14T00:56:43.755Z,102039.88
2023-09-14T00:59:15.923Z,102038.72
2023-09-14T01:01:50.838Z,102042.28
2023-09-14T01:04:23.235Z,102026.91
2023-09-14T01:06:55.613Z,102036.75
2023-09-14T01:09:27.848Z,102049.25
2023-09-14T01:12:00.251Z,102016.91
2023-09-14T01:14:52.885Z,102044.59
2023-09-14T01:17:39.455Z,102048.91
2023-09-14T01:21:01.613Z,102048.69
2023-09-14T01:24:17.765Z,102045.09
2023-09-14T01:26:51.621Z,102053.16
2023-09-14T01:29:24.230Z,102037.88
2023-09-14T01:31:56.296Z,102049.53
2023-09-14T01:34:29.489Z,102010.88
2023-09-14T01:37:05.925Z,102037.88
2023-09-14T01:39:40.343Z,102046.69
2023-09-14T01:42:13.777Z,102047.41
2023-09-14T01:44:46.661Z,102052.75
2023-09-14T01:47:20.253Z,102039.25
2023-09-14T01:49:52.333Z,102037.31
2023-09-14T01:52:25.108Z,102044.59
2023-09-14T01:54:57.160Z,102048.91
2023-09-14T01:57:29.425Z,102026.41
2023-09-14T02:00:01.499Z,102025.41
2023-09-14T02:02:33.502Z,102022.72
2023-09-14T02:05:06.124Z,102041.69
2023-09-14T02:07:38.215Z,102033.22
2023-09-14T02:10:13.864Z,102047.66
2023-09-14T02:12:46.383Z,102049.31
2023-09-14T02:15:19.050Z,102026.88
2023-09-14T02:17:52.611Z,102045.75
2023-09-14T02:20:24.681Z,102047.47
2023-09-14T02:22:56.773Z,102027.56
2023-09-14T02:25:29.101Z,102042.03
2023-09-14T02:28:01.228Z,102025.69
2023-09-14T02:30:33.430Z,102033.84
2023-09-14T02:33:07.542Z,102034.50
2023-09-14T02:35:46.200Z,102035.50
2023-09-14T02:38:19.410Z,102023.78
2023-09-14T02:40:51.500Z,102026.41
2023-09-14T02:43:24.146Z,102030.81
2023-09-14T02:45:57.306Z,102028.94
2023-09-14T02:48:29.428Z,102035.94
2023-09-14T02:51:01.591Z,102024.28
2023-09-14T02:53:35.535Z,102031.50
2023-09-14T02:56:11.840Z,102026.06
2023-09-14T02:58:44.098Z,102025.16
2023-09-14T03:01:16.528Z,102016.88
2023-09-14T03:03:51.001Z,102002.47
2023-09-14T03:06:23.823Z,102001.47
2023-09-14T03:08:55.853Z,102008.69
2023-09-14T03:11:27.954Z,102029.28
2023-09-14T03:13:59.994Z,102026.59
2023-09-14T03:16:32.296Z,102011.19
2023-09-14T03:19:04.744Z,102027.38
2023-09-14T03:21:36.889Z,102022.69
2023-09-14T03:24:08.904Z,102041.34
2023-09-14T03:26:40.987Z,102026.06
2023-09-14T03:29:14.328Z,102040.25
2023-09-14T03:31:46.349Z,102029.47
2023-09-14T03:34:18.381Z,102002.34
2023-09-14T03:36:51.074Z,102027.53
2023-09-14T03:39:23.889Z,102003.22
2023-09-14T03:41:55.943Z,102035.59
2023-09-14T03:44:28.088Z,102018.47
2023-09-14T03:47:00.312Z,102040.69
2023-09-14T03:49:32.272Z,102024.50
2023-09-14T03:52:04.794Z,102043.34
2023-09-14T03:54:37.727Z,102027.97
2023-09-14T03:57:15.945Z,102035.25
2023-09-14T03:59:48.616Z,101990.03
2023-09-14T04:02:20.792Z,102020.75
2023-09-14T04:04:52.849Z,102038.66
2023-09-14T04:07:24.865Z,102035.03
2023-09-14T04:09:56.880Z,102030.53
2023-09-14T04:12:29.045Z,102008.94
2023-09-14T04:15:01.043Z,102024.81
2023-09-14T04:17:33.134Z,102030.50
2023-09-14T04:20:10.494Z,102030.31
2023-09-14T04:22:42.526Z,102016.78
2023-09-14T04:25:14.594Z,102027.50
2023-09-14T04:27:48.621Z,102020.28
2023-09-14T04:30:23.014Z,102011.31
2023-09-14T04:32:55.040Z,102028.31
2023-09-14T04:35:27.136Z,102000.25
2023-09-14T04:37:59.127Z,101992.13
2023-09-14T04:40:31.163Z,102000.97
2023-09-14T04:43:03.479Z,102023.53
2023-09-14T04:45:35.836Z,102008.06
2023-09-14T04:48:08.381Z,102025.97
2023-09-14T04:50:43.596Z,102000.69
2023-09-14T04:53:15.534Z,101999.72
2023-09-14T04:55:47.725Z,102011.31
2023-09-14T04:58:20.078Z,102013.84
2023-09-14T05:00:52.828Z,102030.09
2023-09-14T05:03:24.982Z,102019.97
2023-09-14T05:05:57.125Z,102011.28
2023-09-14T05:08:34.929Z,102032.81
2023-09-14T05:11:07.098Z,102034.41
2023-09-14T05:13:39.062Z,101970.50
2023-09-14T05:16:11.212Z,102007.41
2023-09-14T05:18:43.361Z,102032.47
2023-09-14T05:21:15.445Z,102031.28
2023-09-14T05:23:47.549Z,102023.31
2023-09-14T05:26:19.562Z,102033.13
2023-09-14T05:28:51.547Z,102029.53
2023-09-14T05:31:24.069Z,102048.47
2023-09-14T05:33:56.370Z,102057.22
2023-09-14T05:36:28.545Z,102016.63
2023-09-14T05:39:00.517Z,102063.50
2023-09-14T05:41:32.556Z,102042.56
2023-09-14T05:44:10.358Z,102066.16
2023-09-14T05:46:42.482Z,102067.03
2023-09-14T05:49:14.543Z,102073.22
2023-09-14T05:51:49.085Z,102058.94
2023-09-14T05:54:27.269Z,102059.03
2023-09-14T05:56:59.263Z,102051.00
2023-09-14T05:59:33.055Z,102063.06
2023-09-14T06:02:05.438Z,102062.34
2023-09-14T06:04:37.647Z,102080.47
2023-09-14T06:07:09.795Z,102056.59
2023-09-14T06:09:42.253Z,102060.66
2023-09-14T06:12:14.383Z,102047.53
2023-09-14T06:14:46.371Z,102062.09
2023-09-14T06:17:18.407Z,102066.09
2023-09-14T06:19:50.520Z,102076.19
2023-09-14T06:22:22.853Z,102067.72
2023-09-14T06:24:54.825Z,102069.84
2023-09-14T06:27:26.900Z,102078.16
2023-09-14T06:29:58.900Z,102068.56
2023-09-14T06:32:31.007Z,102068.06
2023-09-14T06:35:03.183Z,102062.03
2023-09-14T06:37:35.188Z,102063.84
2023-09-14T06:40:08.708Z,102066.94
2023-09-14T06:42:40.831Z,102077.03
2023-09-14T06:45:12.881Z,102049.41
2023-09-14T06:47:44.888Z,102032.66
2023-09-14T06:50:16.910Z,102064.44
2023-09-14T06:52:48.965Z,102061.13
2023-09-14T06:55:21.425Z,102064.19
2023-09-14T06:57:53.576Z,102067.16
2023-09-14T07:00:25.875Z,102070.13
2023-09-14T07:02:58.131Z,102069.47
2023-09-14T07:05:32.123Z,102075.97
2023-09-14T07:08:04.972Z,102056.41
2023-09-14T07:10:37.432Z,102075.63
2023-09-14T07:13:09.481Z,102055.22
2023-09-14T07:15:42.430Z,102078.91
2023-09-14T07:18:29.615Z,102065.75
2023-09-14T07:21:05.326Z,102054.34
2023-09-14T07:23:37.421Z,102052.75
2023-09-14T07:26:12.571Z,102074.66
2023-09-14T07:28:44.716Z,102074.97
2023-09-14T07:31:17.087Z,102073.38
2023-09-14T07:33:50.528Z,102077.34
2023-09-14T07:36:22.829Z,102076.78
2023-09-14T07:38:54.971Z,102080.53
2023-09-14T07:41:27.822Z,102088.78
2023-09-14T07:44:00.565Z,102084.59
2023-09-14T07:46:34.140Z,102081.31
2023-09-14T07:49:07.198Z,102040.94
2023-09-14T07:51:39.248Z,102071.59
2023-09-14T07:54:14.325Z,102081.72
2023-09-14T07:56:48.420Z,102079.19
2023-09-14T07:59:20.562Z,102088.16
2023-09-14T08:01:52.595Z,102072.94
2023-09-14T08:04:24.862Z,102091.84
2023-09-14T08:06:57.009Z,102084.84
2023-09-14T08:09:29.351Z,102089.50
2023-09-14T08:12:01.440Z,102084.28
2023-09-14T08:14:33.484Z,102054.69
2023-09-14T08:17:08.267Z,102056.53
2023-09-14T08:19:40.366Z,102075.47
2023-09-14T08:22:12.502Z,102072.75
2023-09-14T08:24:44.663Z,102066.50
2023-09-14T08:27:17.277Z,102064.78
2023-09-14T08:29:49.650Z,102062.06
2023-09-14T08:32:22.974Z,102078.28
2023-09-14T08:35:01.542Z,102078.22
2023-09-14T08:40:09.639Z,102086.41
2023-09-14T08:42:53.225Z,102104.47
2023-09-14T08:45:31.082Z,102065.06
2023-09-14T08:48:05.716Z,102102.09
2023-09-14T08:50:40.772Z,102038.38
2023-09-14T08:53:15.802Z,102091.66
2023-09-14T08:55:48.807Z,102097.19
2023-09-14T08:58:24.119Z,102075.00
2023-09-14T09:00:58.612Z,102026.56
2023-09-14T09:03:30.734Z,102088.59
2023-09-14T09:06:03.023Z,102020.59
2023-09-14T09:08:35.444Z,102027.91
2023-09-14T09:11:08.319Z,102067.59
2023-09-14T09:13:47.589Z,102072.91
2023-09-14T09:16:20.000Z,102081.06
2023-09-14T09:19:08.357Z,102074.91
2023-09-14T09:21:44.169Z,101994.31
2023-09-14T09:24:27.791Z,101996.19
2023-09-14T09:26:59.946Z,102067.19
2023-09-14T09:29:32.145Z,102064.56
2023-09-14T09:32:04.732Z,102065.44
2023-09-14T09:34:36.880Z,102030.34
2023-09-14T09:37:08.968Z,102052.56
2023-09-14T09:39:42.797Z,102040.03
2023-09-14T09:42:15.199Z,102053.63
2023-09-14T09:44:47.259Z,102034.00
2023-09-14T09:47:21.833Z,102064.63
2023-09-14T09:49:54.141Z,102057.66
2023-09-14T09:52:27.945Z,101996.69
2023-09-14T09:55:00.336Z,102011.97
2023-09-14T09:57:38.882Z,102052.44
2023-09-14T10:00:14.329Z,102053.34
2023-09-14T10:02:48.769Z,102052.44
2023-09-14T10:05:48.465Z,102054.25
2023-09-14T10:08:25.220Z,101935.00
2023-09-14T10:10:58.383Z,102010.34
2023-09-14T10:13:35.950Z,102049.88
2023-09-14T10:16:09.986Z,102027.59
2023-09-14T10:18:48.169Z,101976.56
2023-09-14T10:21:30.631Z,102034.81
2023-09-14T10:24:07.367Z,101912.94
2023-09-14T10:26:44.933Z,101997.16
2023-09-14T10:29:29.481Z,101940.88
2023-09-14T10:32:05.949Z,101931.09
2023-09-14T10:35:05.553Z,101985.81
2023-09-14T10:37:46.348Z,101966.91
2023-09-14T10:40:48.297Z,102004.44
2023-09-14T10:43:20.647Z,101944.41
2023-09-14T10:46:00.433Z,101916.63
2023-09-14T10:48:35.404Z,102004.31
2023-09-14T10:51:13.054Z,101969.34
2023-09-14T10:53:46.906Z,102017.75
2023-09-14T10:56:33.134Z,102016.91
2023-09-14T10:59:10.418Z,102006.19
2023-09-14T11:01:54.625Z,101999.88
2023-09-14T11:04:27.809Z,101984.53
2023-09-14T11:07:01.683Z,102005.03
2023-09-14T11:10:05.552Z,102013.78
2023-09-14T11:12:38.821Z,102010.16
2023-09-14T11:15:25.160Z,101979.69
2023-09-14T11:17:58.995Z,102005.91
2023-09-14T11:20:43.111Z,101873.47
2023-09-14T11:23:15.758Z,101964.16
2023-09-14T11:28:26.542Z,102010.03
2023-09-14T11:31:00.140Z,101999.25
2023-09-14T11:33:37.060Z,102000.97
2023-09-14T11:36:13.942Z,101974.88
2023-09-14T11:38:52.895Z,101895.97
2023-09-14T11:41:59.433Z,102007.06
2023-09-14T11:44:45.254Z,101897.66
2023-09-14T11:47:21.373Z,101912.81
2023-09-14T11:50:01.329Z,101906.50
2023-09-14T11:53:47.302Z,101878.63
2023-09-14T12:01:12.368Z,101926.91
2023-09-14T12:04:02.052Z,101979.81
2023-09-14T12:07:03.119Z,101904.56
2023-09-14T12:10:17.326Z,101884.81
2023-09-14T12:12:49.519Z,101985.22
2023-09-14T12:15:26.717Z,101971.81
2023-09-14T12:17:59.009Z,101898.28
2023-09-14T12:23:59.073Z,101895.59
2023-09-14T12:26:39.878Z,101898.28
2023-09-14T12:29:33.387Z,101885.81
2023-09-14T12:32:18.642Z,101928.88
2023-09-14T12:39:29.136Z,101911.00
2023-09-14T13:16:33.742Z,101940.31
2023-09-14T13:19:07.690Z,101939.44
2023-09-14T13:21:40.746Z,101930.50
2023-09-14T13:24:12.872Z,101937.66
2023-09-14T13:26:44.833Z,101926.91
2023-09-14T13:29:18.710Z,101922.44
2023-09-14T13:31:50.743Z,101915.25
2023-09-14T13:34:22.851Z,101917.03
2023-09-14T13:36:55.249Z,101915.25
2023-09-14T13:39:27.444Z,101913.38
2023-09-14T13:41:59.544Z,101910.69
2023-09-14T13:44:31.939Z,101908.00
2023-09-14T13:47:04.308Z,101908.84
2023-09-14T13:49:36.287Z,101904.34
2023-09-14T13:52:08.281Z,101877.44
2023-09-14T13:54:40.302Z,101903.34
2023-09-14T13:57:13.949Z,101898.84
2023-09-14T13:59:50.266Z,101901.53
2023-09-14T14:02:22.682Z,101896.16
2023-09-14T14:04:54.764Z,101895.19
2023-09-14T14:07:27.842Z,101893.34
2023-09-14T14:10:00.131Z,101884.38
2023-09-14T14:12:35.759Z,101892.44
2023-09-14T14:15:12.506Z,101876.38
2023-09-14T14:17:45.608Z,101884.41
2023-09-14T14:20:17.808Z,101876.44
2023-09-14T14:22:50.005Z,101870.22
2023-09-14T14:25:22.061Z,101877.44
2023-09-14T14:27:54.555Z,101873.81
2023-09-14T14:30:26.657Z,101870.22
2023-09-14T14:32:58.659Z,101864.00
2023-09-14T14:35:31.026Z,101862.28
2023-09-14T14:38:03.019Z,101868.59
2023-09-14T14:43:10.657Z,101874.03
2023-09-14T14:45:42.999Z,101868.66
2023-09-14T14:48:15.042Z,101867.81
2023-09-14T14:50:47.696Z,101865.13
2023-09-14T14:53:20.532Z,101865.16
2023-09-14T14:55:52.594Z,101872.31
2023-09-14T14:58:24.891Z,101872.34
2023-09-14T15:00:57.840Z,101872.34
2023-09-14T15:03:30.893Z,101868.75
2023-09-14T15:06:03.808Z,101858.03
2023-09-14T15:08:43.204Z,101851.72
2023-09-14T15:11:15.260Z,101851.72
2023-09-14T15:13:48.096Z,101849.06
2023-09-14T15:16:20.167Z,101853.53
2023-09-14T15:18:52.268Z,101849.94
2023-09-14T15:21:24.455Z,101854.44
2023-09-14T15:23:56.419Z,101841.88
2023-09-14T15:26:28.459Z,101845.50
2023-09-14T15:29:00.926Z,101849.06
2023-09-14T15:31:32.930Z,101842.78
2023-09-14T15:34:05.046Z,101850.84
2023-09-14T15:36:37.098Z,101845.50
2023-09-14T15:39:09.410Z,101843.69
2023-09-14T15:41:41.574Z,101841.00
2023-09-14T15:44:13.608Z,101841.91
2023-09-14T15:46:45.604Z,101838.31
2023-09-14T15:49:19.035Z,101852.63
2023-09-14T15:51:51.644Z,101837.41
2023-09-14T15:54:23.850Z,101824.91
2023-09-14T15:56:55.815Z,101838.31
2023-09-14T15:59:28.093Z,101834.75
2023-09-14T16:02:02.081Z,101838.31
2023-09-14T16:04:34.171Z,101831.16
2023-09-14T16:07:06.227Z,101811.47
2023-09-14T16:09:38.419Z,101811.47
2023-09-14T16:12:10.417Z,101829.38
2023-09-14T16:14:42.845Z,101830.28
2023-09-14T16:17:14.876Z,101826.72
2023-09-14T16:19:47.013Z,101829.38
2023-09-14T16:22:19.034Z,101815.09
2023-09-14T16:24:51.127Z,101813.28
2023-09-14T16:27:23.869Z,101827.59
2023-09-14T16:29:55.939Z,101821.31
2023-09-14T16:32:27.941Z,101823.09
2023-09-14T16:35:00.354Z,101818.66
2023-09-14T16:37:32.387Z,101820.41
2023-09-14T16:40:05.520Z,101826.69
2023-09-14T16:42:37.656Z,101824.88
2023-09-14T16:45:10.246Z,101824.84
2023-09-14T16:47:42.259Z,101827.50
2023-09-14T16:50:15.046Z,101825.72
2023-09-14T16:52:47.241Z,101818.53
2023-09-14T16:55:21.334Z,101821.25
2023-09-14T16:57:53.446Z,101829.25
2023-09-14T17:00:25.440Z,101822.16
2023-09-14T17:02:57.516Z,101797.09
2023-09-14T17:05:29.598Z,101819.53
2023-09-14T17:08:01.625Z,101820.44
2023-09-14T17:10:33.904Z,101816.84
2023-09-14T17:13:06.167Z,101814.16
2023-09-14T17:15:38.342Z,101813.25
2023-09-14T17:18:10.630Z,101815.06
2023-09-14T17:20:42.644Z,101816.78
2023-09-14T17:23:14.630Z,101811.41
2023-09-14T17:25:48.915Z,101807.81
2023-09-14T17:28:21.510Z,101810.50
2023-09-14T17:30:53.473Z,101807.81
2023-09-14T17:33:26.168Z,101811.34
2023-09-14T17:35:58.498Z,101808.63
2023-09-14T17:38:30.523Z,101794.31
2023-09-14T17:41:02.530Z,101809.47
2023-09-14T17:43:35.518Z,101803.19
2023-09-14T17:46:08.503Z,101807.59
2023-09-14T17:48:41.576Z,101814.72
2023-09-14T17:51:16.308Z,101820.03
2023-09-14T17:53:48.256Z,101816.44
2023-09-14T17:56:20.427Z,101818.19
2023-09-14T17:58:52.660Z,101808.31
2023-09-14T18:01:25.128Z,101822.53
2023-09-14T18:04:02.021Z,101818.97
2023-09-14T18:06:34.391Z,101821.72
2023-09-14T18:09:06.501Z,101826.03
2023-09-14T18:11:38.438Z,101825.03
2023-09-14T18:14:10.410Z,101826.81
2023-09-14T18:16:42.426Z,101833.91
2023-09-14T18:19:18.331Z,101833.84
2023-09-14T18:21:50.970Z,101838.25
2023-09-14T18:24:23.117Z,101842.69
2023-09-14T18:26:55.469Z,101836.38
2023-09-14T18:29:27.433Z,101849.69
2023-09-14T18:31:59.428Z,101849.66
2023-09-14T18:34:31.584Z,101849.59
2023-09-14T18:37:05.046Z,101853.13
2023-09-14T18:39:37.219Z,101855.75
2023-09-14T18:42:09.268Z,101852.09
2023-09-14T18:44:42.724Z,101844.94
2023-09-14T18:47:14.796Z,101845.81
2023-09-14T18:49:47.006Z,101865.34
2023-09-14T18:52:18.951Z,101846.59
2023-09-14T18:54:50.980Z,101859.91
2023-09-14T18:57:23.755Z,101854.53
2023-09-14T18:59:56.027Z,101857.13
2023-09-14T19:02:27.943Z,101862.44
2023-09-14T19:05:00.037Z,101865.94
2023-09-14T19:07:32.025Z,101860.53
2023-09-14T19:10:05.055Z,101864.03
2023-09-14T19:12:37.158Z,101868.41
2023-09-14T19:15:10.032Z,101867.44
2023-09-14T19:17:42.019Z,101868.25
2023-09-14T19:20:14.053Z,101873.56
2023-09-14T19:22:46.060Z,101865.50
2023-09-14T19:25:18.119Z,101869.00
2023-09-14T19:27:50.168Z,101870.78
2023-09-14T19:30:22.703Z,101868.97
2023-09-14T19:32:54.750Z,101870.75
2023-09-14T19:35:26.980Z,101868.94
2023-09-14T19:37:59.184Z,101863.53
2023-09-14T19:40:31.516Z,101860.81
2023-09-14T19:43:03.866Z,101864.34
2023-09-14T19:45:36.555Z,101861.66
2023-09-14T19:48:08.613Z,101854.50
2023-09-14T19:50:40.700Z,101866.91
2023-09-14T19:53:13.233Z,101865.94
2023-09-14T19:55:45.299Z,101858.72
2023-09-14T19:58:19.478Z,101866.66
2023-09-14T20:00:51.555Z,101869.28
2023-09-14T20:03:23.725Z,101869.25
2023-09-14T20:05:55.782Z,101867.34
2023-09-14T20:08:29.981Z,101864.69
2023-09-14T20:11:04.554Z,101860.22
2023-09-14T20:13:38.718Z,101850.28
2023-09-14T20:16:10.866Z,101857.41
2023-09-14T20:18:43.365Z,101859.09
2023-09-14T20:21:15.552Z,101870.59
2023-09-14T20:23:47.698Z,101867.84
2023-09-14T20:26:19.754Z,101854.44
2023-09-14T20:28:51.872Z,101857.97
2023-09-14T20:31:24.215Z,101865.03
2023-09-14T20:33:56.370Z,101859.63
2023-09-14T20:36:31.805Z,101859.59
2023-09-14T20:39:11.482Z,101859.56
2023-09-14T20:41:43.442Z,101853.25
2023-09-14T20:44:16.883Z,101853.25
2023-09-14T20:46:50.411Z,101851.34
2023-09-14T20:49:22.878Z,101857.53
2023-09-14T20:51:55.046Z,101846.72
2023-09-14T20:54:27.056Z,101834.13
2023-09-14T20:56:59.035Z,101850.28
2023-09-14T20:59:31.139Z,101850.22
2023-09-14T21:02:04.723Z,101851.91
2023-09-14T21:04:36.782Z,101844.69
2023-09-14T21:07:08.769Z,101844.63
2023-09-14T21:09:40.802Z,101839.31
2023-09-14T21:12:13.634Z,101826.72
2023-09-14T21:14:46.265Z,101842.78
2023-09-14T21:17:18.461Z,101841.81
2023-09-14T21:19:59.571Z,101844.41
2023-09-14T21:22:31.605Z,101841.97
2023-09-14T21:25:03.883Z,101839.94
2023-09-14T21:27:37.817Z,101831.78
2023-09-14T21:30:10.204Z,101837.97
2023-09-14T21:32:42.235Z,101837.13
2023-09-14T21:35:14.262Z,101832.59
2023-09-14T21:37:46.386Z,101827.28
2023-09-14T21:40:18.359Z,101818.22
2023-09-14T21:42:50.364Z,101836.91
2023-09-14T21:45:22.644Z,101812.75
2023-09-14T21:47:54.681Z,101818.97
2023-09-14T21:50:26.793Z,101833.28
2023-09-14T21:52:59.116Z,101831.47
2023-09-14T21:55:32.652Z,101828.75
2023-09-14T21:58:05.010Z,101819.78
2023-09-14T22:00:37.835Z,101825.13
2023-09-14T22:03:10.141Z,101826.91
2023-09-14T22:05:42.415Z,101825.97
2023-09-14T22:08:14.601Z,101823.25
2023-09-14T22:10:47.683Z,101823.28
2023-09-14T22:13:19.701Z,101819.66
2023-09-14T22:15:51.754Z,101824.13
2023-09-14T22:18:23.779Z,101812.50
2023-09-14T22:20:56.082Z,101825.78
2023-09-14T22:23:28.318Z,101816.03
2023-09-14T22:26:05.219Z,101816.88
2023-09-14T22:28:37.220Z,101820.41
2023-09-14T22:31:14.158Z,101814.94
2023-09-14T22:33:46.282Z,101817.63
2023-09-14T22:36:18.219Z,101812.25
2023-09-14T22:38:50.511Z,101800.56
2023-09-14T22:41:22.451Z,101812.16
2023-09-14T22:43:54.417Z,101807.75
2023-09-14T22:46:27.039Z,101799.72
2023-09-14T22:49:00.072Z,101794.41
2023-09-14T22:51:32.267Z,101803.34
2023-09-14T22:54:04.802Z,101792.66
2023-09-14T22:56:36.848Z,101799.78
2023-09-14T22:59:08.823Z,101785.31
2023-09-14T23:01:40.980Z,101796.91
2023-09-14T23:04:13.040Z,101795.97
2023-09-14T23:06:45.751Z,101796.84
2023-09-14T23:09:17.846Z,101805.69
2023-09-14T23:11:52.607Z,101798.50
2023-09-14T23:14:31.156Z,101796.63
2023-09-14T23:17:04.549Z,101794.78
2023-09-14T23:19:36.958Z,101791.97
2023-09-14T23:22:08.913Z,101795.53
2023-09-14T23:24:41.692Z,101799.03
2023-09-14T23:27:13.708Z,101795.38
2023-09-14T23:29:46.802Z,101792.63
2023-09-14T23:32:20.127Z,101796.97
2023-09-14T23:34:52.082Z,101796.00
2023-09-14T23:37:24.400Z,101794.25
2023-09-14T23:39:58.119Z,101796.75
2023-09-14T23:42:30.199Z,101794.94
2023-09-14T23:45:02.162Z,101786.88
2023-09-14T23:47:34.676Z,101785.97
2023-09-14T23:50:11.531Z,101788.56
2023-09-14T23:52:43.594Z,101784.09
2023-09-14T23:55:15.827Z,101782.28
2023-09-14T23:57:47.937Z,101784.03
